Time;durP1;ratioP1;P1;durP2;ratioP2;P2;SDS_P1;SDS_P2;PMS_P1;PMS_P2;Temp;Humidity;BMP_temperature;BMP_pressure;BME280_temperature;BME280_humidity;BME280_pressure;Samples;Min_cycle;Max_cycle;Signal;HPM_P1;HPM_P2
2022/02/11 00:00:38;;;;;;;0.10;0.10;;;;;;;;;;5021329;28;20251;-67
2022/02/11 00:05:57;;;;;;;0.20;0.20;;;;;;;;;;5021720;28;20373;-69
2022/02/11 00:08:24;;;;;;;0.10;0.10;;;;;;;;;;5042481;28;20699;-69
2022/02/11 00:10:51;;;;;;;0.10;0.10;;;;;;;;;;5026678;28;20260;-68
2022/02/11 00:13:18;;;;;;;0.20;0.20;;;;;;;;;;5044297;28;20208;-69
2022/02/11 00:15:44;;;;;;;0.10;0.10;;;;;;;;;;5025261;28;20247;-68
2022/02/11 00:18:11;;;;;;;0.10;0.10;;;;;;;;;;5045540;28;20247;-68
2022/02/11 00:20:38;;;;;;;0.10;0.10;;;;;;;;;;5023247;28;20242;-68
2022/02/11 00:23:06;;;;;;;0.10;0.10;;;;;;;;;;5047285;28;20220;-68
2022/02/11 00:25:34;;;;;;;0.10;0.10;;;;;;;;;;5021548;28;20246;-69
2022/02/11 00:31:24;;;;;;;0.20;0.20;;;;;;;;;;5026531;28;20251;-68
2022/02/11 00:33:54;;;;;;;0.20;0.20;;;;;;;;;;5034880;28;20287;-70
2022/02/11 00:36:24;;;;;;;0.20;0.20;;;;;;;;;;5034161;28;20538;-69
2022/02/11 00:39:13;;;;;;;0.10;0.10;;;;;;;;;;5034656;28;20263;-67
2022/02/11 01:03:58;;;;;;;0.17;0.17;;;;;;;;;;5035023;28;20204;-68
2022/02/11 01:06:24;;;;;;;0.10;0.10;;;;;;;;;;5034642;28;20557;-68
2022/02/11 01:08:51;;;;;;;0.10;0.10;;;;;;;;;;5034247;28;20208;-69
2022/02/11 01:11:22;;;;;;;0.10;0.10;;;;;;;;;;5032529;28;20239;-68
2022/02/11 01:13:49;;;;;;;0.10;0.10;;;;;;;;;;5034751;28;20205;-67
2022/02/11 01:16:21;;;;;;;0.10;0.10;;;;;;;;;;5031948;28;20247;-68
2022/02/11 01:18:56;;;;;;;0.10;0.10;;;;;;;;;;5034661;28;20193;-69
2022/02/11 01:21:31;;;;;;;0.10;0.10;;;;;;;;;;5033748;28;20310;-69
2022/02/11 01:24:07;;;;;;;0.10;0.10;;;;;;;;;;5031880;28;20195;-67
2022/02/11 01:26:44;;;;;;;0.10;0.10;;;;;;;;;;5036677;28;20246;-68
2022/02/11 01:29:58;;;;;;;0.10;0.10;;;;;;;;;;5028754;28;20196;-68
2022/02/11 01:32:37;;;;;;;0.10;0.10;;;;;;;;;;5045073;28;20301;-69
2022/02/11 01:35:15;;;;;;;0.10;0.10;;;;;;;;;;5023057;28;20216;-68
2022/02/11 01:37:52;;;;;;;0.10;0.10;;;;;;;;;;5022871;28;20219;-68
2022/02/11 01:51:45;;;;;;;0.17;0.17;;;;;;;;;;5032219;28;20250;-68
2022/02/11 01:54:19;;;;;;;0.10;0.10;;;;;;;;;;5028360;28;20196;-69
2022/02/11 01:56:56;;;;;;;0.10;0.10;;;;;;;;;;5039395;28;20473;-68
2022/02/11 02:00:04;;;;;;;0.10;0.10;;;;;;;;;;5025017;28;20459;-68
2022/02/11 02:03:09;;;;;;;0.10;0.10;;;;;;;;;;5044566;28;20250;-67
2022/02/11 02:14:39;;;;;;;0.10;0.10;;;;;;;;;;5033877;28;20196;-68
2022/02/11 02:22:48;;;;;;;0.13;0.13;;;;;;;;;;5044493;28;20259;-68
2022/02/11 02:25:24;;;;;;;0.10;0.10;;;;;;;;;;5015168;28;20209;-68
2022/02/11 02:28:09;;;;;;;0.10;0.10;;;;;;;;;;5049466;28;20200;-68
2022/02/11 02:31:42;;;;;;;0.10;0.10;;;;;;;;;;5020736;28;20292;-68
2022/02/11 02:34:02;;;;;;;0.10;0.10;;;;;;;;;;5040219;28;20199;-68
2022/02/11 02:36:52;;;;;;;0.10;0.10;;;;;;;;;;5038536;28;20265;-68
2022/02/11 02:43:18;;;;;;;0.20;0.20;;;;;;;;;;5029667;28;20212;-69
2022/02/11 02:50:49;;;;;;;0.10;0.10;;;;;;;;;;5021830;28;20293;-68
2022/02/11 02:59:01;;;;;;;0.10;0.10;;;;;;;;;;4984802;28;20509;-68
2022/02/11 03:01:41;;;;;;;0.10;0.10;;;;;;;;;;5020794;28;20239;-68
2022/02/11 03:34:48;;;;;;;0.10;0.10;;;;;;;;;;5015079;28;20215;-69
2022/02/11 03:51:22;;;;;;;0.13;0.13;;;;;;;;;;5028807;28;20285;-68
2022/02/11 04:22:17;;;;;;;0.10;0.10;;;;;;;;;;5038395;28;20249;-68
2022/02/11 04:55:17;;;;;;;0.10;0.10;;;;;;;;;;5017514;28;20243;-67
2022/02/11 05:00:27;;;;;;;0.10;0.10;;;;;;;;;;5019761;28;20450;-68
2022/02/11 05:02:56;;;;;;;0.20;0.20;;;;;;;;;;5049586;28;20550;-68
2022/02/11 05:05:23;;;;;;;0.10;0.10;;;;;;;;;;5018442;28;20205;-67
2022/02/11 05:07:49;;;;;;;0.10;0.10;;;;;;;;;;5050541;28;20255;-67
2022/02/11 05:10:19;;;;;;;0.13;0.13;;;;;;;;;;5016360;28;20217;-68
2022/02/11 05:12:45;;;;;;;0.10;0.10;;;;;;;;;;5051725;28;20481;-69
2022/02/11 05:15:12;;;;;;;0.20;0.20;;;;;;;;;;5015339;28;20215;-68
2022/02/11 05:17:39;;;;;;;0.20;0.20;;;;;;;;;;5052948;28;20196;-68
2022/02/11 05:20:06;;;;;;;0.10;0.10;;;;;;;;;;5018805;28;20208;-68
2022/02/11 05:22:32;;;;;;;0.10;0.10;;;;;;;;;;5054511;28;20246;-69
2022/02/11 05:24:58;;;;;;;0.10;0.10;;;;;;;;;;5023358;28;20208;-69
2022/02/11 05:27:26;;;;;;;0.20;0.20;;;;;;;;;;5045094;28;20241;-69
2022/02/11 05:29:52;;;;;;;0.10;0.10;;;;;;;;;;5023284;28;20590;-68
2022/02/11 05:32:19;;;;;;;0.10;0.10;;;;;;;;;;5044955;28;20522;-68
2022/02/11 05:34:45;;;;;;;0.20;0.20;;;;;;;;;;5023240;28;20213;-68
2022/02/11 05:37:11;;;;;;;0.10;0.10;;;;;;;;;;5044935;28;20277;-69
2022/02/11 05:39:37;;;;;;;0.10;0.10;;;;;;;;;;5023165;28;20348;-68
2022/02/11 05:42:04;;;;;;;0.10;0.10;;;;;;;;;;5044197;28;20235;-68
2022/02/11 05:44:31;;;;;;;0.10;0.10;;;;;;;;;;5022960;28;20276;-68
2022/02/11 05:46:57;;;;;;;0.20;0.20;;;;;;;;;;5042580;28;20270;-68
2022/02/11 05:49:24;;;;;;;0.20;0.20;;;;;;;;;;5024601;28;20208;-68
2022/02/11 05:51:50;;;;;;;0.10;0.10;;;;;;;;;;5040575;28;20246;-69
2022/02/11 05:54:16;;;;;;;0.20;0.20;;;;;;;;;;5026754;28;20215;-68
2022/02/11 05:56:43;;;;;;;0.10;0.10;;;;;;;;;;5038661;28;20239;-68
2022/02/11 05:59:09;;;;;;;0.10;0.10;;;;;;;;;;5028492;28;20247;-69
2022/02/11 06:01:36;;;;;;;0.10;0.10;;;;;;;;;;5036118;28;20246;-67
2022/02/11 06:04:02;;;;;;;0.20;0.20;;;;;;;;;;5030777;28;20219;-69
2022/02/11 06:06:29;;;;;;;0.10;0.10;;;;;;;;;;5034743;28;20246;-68
2022/02/11 06:08:55;;;;;;;0.10;0.10;;;;;;;;;;5032163;28;20452;-69
2022/02/11 06:11:27;;;;;;;0.10;0.10;;;;;;;;;;5032659;28;20357;-70
2022/02/11 06:13:53;;;;;;;0.10;0.10;;;;;;;;;;5032593;28;20479;-68
2022/02/11 06:16:19;;;;;;;0.10;0.10;;;;;;;;;;5032081;28;20249;-68
2022/02/11 06:18:47;;;;;;;0.10;0.10;;;;;;;;;;5034671;28;20221;-69
2022/02/11 06:21:13;;;;;;;0.10;0.10;;;;;;;;;;5030870;28;20242;-68
2022/02/11 06:23:39;;;;;;;0.10;0.10;;;;;;;;;;5036272;28;20302;-68
2022/02/11 06:26:06;;;;;;;0.10;0.10;;;;;;;;;;5028450;28;20627;-68
2022/02/11 06:28:32;;;;;;;0.10;0.10;;;;;;;;;;5038134;28;20247;-68
2022/02/11 06:30:58;;;;;;;0.13;0.13;;;;;;;;;;5026778;28;20286;-68
2022/02/11 06:33:24;;;;;;;0.10;0.10;;;;;;;;;;5039998;28;20448;-68
2022/02/11 06:35:52;;;;;;;0.20;0.20;;;;;;;;;;5024745;28;20242;-69
2022/02/11 06:38:18;;;;;;;0.10;0.10;;;;;;;;;;5041573;28;20205;-68
2022/02/11 06:40:45;;;;;;;0.17;0.17;;;;;;;;;;5022779;28;20254;-69
2022/02/11 06:43:14;;;;;;;0.10;0.10;;;;;;;;;;5043662;28;20228;-68
2022/02/11 06:45:40;;;;;;;0.10;0.10;;;;;;;;;;5021886;28;20368;-68
2022/02/11 06:48:06;;;;;;;0.10;0.10;;;;;;;;;;5044835;28;20205;-69
2022/02/11 06:50:32;;;;;;;0.20;0.20;;;;;;;;;;5019898;28;20243;-69
2022/02/11 06:53:00;;;;;;;0.10;0.10;;;;;;;;;;5046793;28;20371;-69
2022/02/11 06:55:26;;;;;;;0.10;0.10;;;;;;;;;;5018070;28;20251;-69
2022/02/11 06:57:53;;;;;;;0.10;0.10;;;;;;;;;;5048075;28;20270;-67
2022/02/11 07:00:20;;;;;;;0.10;0.10;;;;;;;;;;5016284;28;20235;-68
2022/02/11 07:02:47;;;;;;;0.13;0.13;;;;;;;;;;5049872;28;20409;-68
2022/02/11 07:05:13;;;;;;;0.10;0.10;;;;;;;;;;5014646;28;20215;-68
2022/02/11 07:07:40;;;;;;;0.20;0.20;;;;;;;;;;5051050;28;20205;-68
2022/02/11 07:10:08;;;;;;;0.10;0.10;;;;;;;;;;5015109;28;20741;-68
2022/02/11 07:12:34;;;;;;;0.10;0.10;;;;;;;;;;5053210;28;20381;-68
2022/02/11 07:15:00;;;;;;;0.10;0.10;;;;;;;;;;5022324;28;20259;-70
2022/02/11 07:17:27;;;;;;;0.10;0.10;;;;;;;;;;5044646;28;20259;-68
2022/02/11 07:19:53;;;;;;;0.20;0.20;;;;;;;;;;5025579;28;20205;-69
2022/02/11 07:22:19;;;;;;;0.10;0.10;;;;;;;;;;5047475;28;20308;-69
2022/02/11 07:24:47;;;;;;;0.10;0.10;;;;;;;;;;5025695;28;20664;-70
2022/02/11 07:27:15;;;;;;;0.10;0.10;;;;;;;;;;5047458;28;20302;-69
2022/02/11 07:29:41;;;;;;;0.17;0.17;;;;;;;;;;5025418;28;20214;-69
2022/02/11 07:32:08;;;;;;;0.13;0.13;;;;;;;;;;5047197;28;20259;-69
2022/02/11 07:34:34;;;;;;;0.10;0.10;;;;;;;;;;5025411;28;20231;-68
2022/02/11 07:37:01;;;;;;;0.10;0.10;;;;;;;;;;5045949;28;20570;-69
2022/02/11 07:39:28;;;;;;;0.20;0.20;;;;;;;;;;5025941;28;20262;-68
2022/02/11 07:41:54;;;;;;;0.10;0.10;;;;;;;;;;5043750;28;20251;-69
2022/02/11 07:44:22;;;;;;;0.10;0.10;;;;;;;;;;5027945;28;20236;-69
2022/02/11 07:46:48;;;;;;;0.10;0.10;;;;;;;;;;5042589;28;20242;-69
2022/02/11 07:49:15;;;;;;;0.10;0.10;;;;;;;;;;5029651;28;20266;-68
2022/02/11 07:51:41;;;;;;;0.20;0.20;;;;;;;;;;5040407;28;20314;-68
2022/02/11 07:54:07;;;;;;;0.10;0.10;;;;;;;;;;5031126;28;20428;-68
2022/02/11 07:56:34;;;;;;;0.10;0.10;;;;;;;;;;5038395;28;20516;-69
2022/02/11 07:59:00;;;;;;;0.10;0.10;;;;;;;;;;5033225;28;20216;-70
2022/02/11 08:01:28;;;;;;;0.10;0.10;;;;;;;;;;5036287;28;20457;-70
2022/02/11 08:03:54;;;;;;;0.10;0.10;;;;;;;;;;5034818;28;20510;-70
2022/02/11 08:06:20;;;;;;;0.10;0.10;;;;;;;;;;5034765;28;20563;-69
2022/02/11 08:08:46;;;;;;;0.20;0.20;;;;;;;;;;5036685;28;20292;-70
2022/02/11 08:11:13;;;;;;;0.20;0.20;;;;;;;;;;5032415;28;20246;-70
2022/02/11 08:13:39;;;;;;;0.13;0.13;;;;;;;;;;5038366;28;20274;-69
2022/02/11 08:16:06;;;;;;;0.10;0.10;;;;;;;;;;5030682;28;20251;-69
2022/02/11 08:18:34;;;;;;;0.10;0.10;;;;;;;;;;5040386;28;20205;-70
2022/02/11 08:21:00;;;;;;;0.20;0.20;;;;;;;;;;5029002;28;20249;-69
2022/02/11 08:23:26;;;;;;;0.17;0.17;;;;;;;;;;5041287;28;20267;-69
2022/02/11 08:25:53;;;;;;;0.23;0.23;;;;;;;;;;5027202;28;20314;-70
2022/02/11 08:28:19;;;;;;;0.10;0.10;;;;;;;;;;5043229;28;20287;-68
2022/02/11 08:30:49;;;;;;;0.10;0.10;;;;;;;;;;5025082;28;20239;-69
2022/02/11 08:33:16;;;;;;;0.17;0.17;;;;;;;;;;5044785;28;20235;-71
2022/02/11 08:35:44;;;;;;;0.10;0.10;;;;;;;;;;5024363;28;20239;-70
2022/02/11 08:38:10;;;;;;;0.10;0.10;;;;;;;;;;5045932;28;20300;-69
2022/02/11 08:40:37;;;;;;;0.10;0.10;;;;;;;;;;5022465;28;20251;-69
2022/02/11 08:43:04;;;;;;;0.10;0.10;;;;;;;;;;5047934;28;20217;-69
2022/02/11 08:45:31;;;;;;;0.10;0.10;;;;;;;;;;5020550;28;20250;-71
2022/02/11 08:47:57;;;;;;;0.20;0.20;;;;;;;;;;5049046;28;20268;-69
2022/02/11 08:50:24;;;;;;;0.17;0.17;;;;;;;;;;5019144;28;20279;-69
2022/02/11 08:52:52;;;;;;;0.10;0.10;;;;;;;;;;5050241;28;20222;-71
2022/02/11 08:55:22;;;;;;;0.20;0.20;;;;;;;;;;5017676;28;20405;-70
2022/02/11 08:57:48;;;;;;;0.10;0.10;;;;;;;;;;5050713;28;20381;-69
2022/02/11 09:00:16;;;;;;;0.10;0.10;;;;;;;;;;5015713;28;20213;-68
2022/02/11 09:02:42;;;;;;;0.10;0.10;;;;;;;;;;5053023;28;20248;-69
2022/02/11 09:05:10;;;;;;;0.10;0.10;;;;;;;;;;5014792;28;20488;-69
2022/02/11 09:07:54;;;;;;;0.20;0.20;;;;;;;;;;5053935;28;20208;-71
2022/02/11 09:10:26;;;;;;;0.10;0.10;;;;;;;;;;5017731;28;20220;-70
2022/02/11 09:12:52;;;;;;;0.10;0.10;;;;;;;;;;5049739;28;20492;-69
2022/02/11 09:15:21;;;;;;;0.10;0.10;;;;;;;;;;5017479;28;20242;-70
2022/02/11 09:17:48;;;;;;;0.10;0.10;;;;;;;;;;5050750;28;20203;-69
2022/02/11 09:20:14;;;;;;;0.20;0.20;;;;;;;;;;5015961;28;20208;-69
2022/02/11 09:22:41;;;;;;;0.17;0.17;;;;;;;;;;5052489;28;20276;-70
2022/02/11 09:25:09;;;;;;;0.13;0.13;;;;;;;;;;5014227;28;20559;-70
2022/02/11 09:27:42;;;;;;;0.10;0.10;;;;;;;;;;5054262;28;20200;-70
2022/02/11 09:30:09;;;;;;;0.10;0.10;;;;;;;;;;5014526;28;20251;-70
2022/02/11 09:32:36;;;;;;;0.33;0.33;;;;;;;;;;5053605;28;20194;-69
2022/02/11 09:35:03;;;;;;;0.13;0.13;;;;;;;;;;5023502;28;20517;-70
2022/02/11 09:37:30;;;;;;;0.10;0.10;;;;;;;;;;5011807;28;20208;-70
2022/02/11 09:39:57;;;;;;;0.10;0.10;;;;;;;;;;5022665;28;20240;-70
2022/02/11 09:42:26;;;;;;;0.10;0.10;;;;;;;;;;5045140;28;20238;-70
2022/02/11 09:44:53;;;;;;;0.20;0.20;;;;;;;;;;5023093;28;20245;-69
2022/02/11 09:47:20;;;;;;;0.10;0.10;;;;;;;;;;5044815;28;20243;-70
2022/02/11 09:49:47;;;;;;;0.73;0.73;;;;;;;;;;5022970;28;20212;-71
2022/02/11 09:52:14;;;;;;;0.10;0.10;;;;;;;;;;5044885;28;20239;-68
2022/02/11 09:54:43;;;;;;;0.10;0.10;;;;;;;;;;5022827;28;20212;-68
2022/02/11 09:57:09;;;;;;;0.10;0.10;;;;;;;;;;5044657;28;20552;-69
2022/02/11 09:59:37;;;;;;;0.10;0.10;;;;;;;;;;5022718;28;20394;-69
2022/02/11 10:02:06;;;;;;;0.10;0.10;;;;;;;;;;5044229;28;20447;-69
2022/02/11 10:04:33;;;;;;;0.10;0.10;;;;;;;;;;5022664;28;20225;-70
2022/02/11 10:07:01;;;;;;;0.10;0.10;;;;;;;;;;5043032;28;20239;-69
2022/02/11 10:09:28;;;;;;;0.10;0.10;;;;;;;;;;5023391;28;20224;-70
2022/02/11 10:11:55;;;;;;;0.10;0.10;;;;;;;;;;5041777;28;20248;-70
2022/02/11 10:14:35;;;;;;;0.10;0.10;;;;;;;;;;5024678;28;20273;-70
2022/02/11 10:17:16;;;;;;;0.20;0.20;;;;;;;;;;5043647;28;20246;-70
2022/02/11 10:20:17;;;;;;;0.10;0.10;;;;;;;;;;5022613;28;20232;-69
2022/02/11 10:22:47;;;;;;;0.10;0.10;;;;;;;;;;5004010;28;20252;-69
2022/02/11 10:25:14;;;;;;;0.10;0.10;;;;;;;;;;5022326;28;20229;-71
2022/02/11 10:27:40;;;;;;;0.20;0.20;;;;;;;;;;5021478;28;20516;-68
2022/02/11 10:30:10;;;;;;;0.20;0.20;;;;;;;;;;5013178;28;20374;-69
2022/02/11 10:32:39;;;;;;;0.10;0.10;;;;;;;;;;5052487;28;20283;-70
2022/02/11 10:35:07;;;;;;;0.10;0.10;;;;;;;;;;5018949;28;20491;-69
2022/02/11 10:37:34;;;;;;;0.10;0.10;;;;;;;;;;5053702;28;20221;-70
2022/02/11 10:40:01;;;;;;;0.10;0.10;;;;;;;;;;5037409;28;20237;-70
2022/02/11 10:42:42;;;;;;;0.10;0.10;;;;;;;;;;5027828;28;20590;-71
2022/02/11 10:45:28;;;;;;;0.10;0.10;;;;;;;;;;5013487;28;20241;-70
2022/02/11 10:48:14;;;;;;;0.10;0.10;;;;;;;;;;5048063;28;20283;-70
2022/02/11 10:50:40;;;;;;;0.10;0.10;;;;;;;;;;5021408;28;20553;-67
2022/02/11 10:53:08;;;;;;;0.10;0.10;;;;;;;;;;5046524;28;20209;-66
2022/02/11 10:55:34;;;;;;;0.10;0.10;;;;;;;;;;5023611;28;20291;-68
2022/02/11 10:58:00;;;;;;;0.20;0.20;;;;;;;;;;5050483;28;20200;-66
2022/02/11 11:00:27;;;;;;;0.10;0.10;;;;;;;;;;5021967;28;20585;-67
2022/02/11 11:02:54;;;;;;;0.10;0.10;;;;;;;;;;5051520;28;20207;-67
2022/02/11 11:05:23;;;;;;;0.10;0.10;;;;;;;;;;5020059;28;20296;-66
2022/02/11 11:07:50;;;;;;;0.10;0.10;;;;;;;;;;5053164;28;20481;-67
2022/02/11 11:10:17;;;;;;;0.10;0.10;;;;;;;;;;5018384;28;20272;-67
2022/02/11 11:12:48;;;;;;;0.10;0.10;;;;;;;;;;5054171;28;20193;-67
2022/02/11 11:15:17;;;;;;;0.10;0.10;;;;;;;;;;5018233;28;20276;-66
2022/02/11 11:17:43;;;;;;;0.10;0.10;;;;;;;;;;5054454;28;20194;-67
2022/02/11 11:20:10;;;;;;;0.10;0.10;;;;;;;;;;5016870;28;20393;-65
2022/02/11 11:22:40;;;;;;;0.10;0.10;;;;;;;;;;5056018;28;20194;-67
2022/02/11 11:25:09;;;;;;;0.10;0.10;;;;;;;;;;5016018;28;20275;-66
2022/02/11 11:27:42;;;;;;;0.10;0.10;;;;;;;;;;5056382;28;20265;-68
2022/02/11 11:30:21;;;;;;;0.10;0.10;;;;;;;;;;5016388;28;20205;-66
2022/02/11 11:33:02;;;;;;;0.10;0.10;;;;;;;;;;5052670;28;20245;-66
2022/02/11 11:35:29;;;;;;;0.10;0.10;;;;;;;;;;5022777;28;20246;-66
2022/02/11 11:38:12;;;;;;;0.10;0.10;;;;;;;;;;5051002;28;20205;-66
2022/02/11 11:40:39;;;;;;;0.10;0.10;;;;;;;;;;5024077;28;20311;-67
2022/02/11 11:43:12;;;;;;;0.10;0.10;;;;;;;;;;5048054;28;20388;-67
2022/02/11 11:45:42;;;;;;;0.10;0.10;;;;;;;;;;5024161;28;20317;-67
2022/02/11 11:48:13;;;;;;;0.10;0.10;;;;;;;;;;5047214;28;20453;-67
2022/02/11 11:50:41;;;;;;;0.10;0.10;;;;;;;;;;5024103;28;20264;-66
2022/02/11 11:53:23;;;;;;;0.10;0.10;;;;;;;;;;5047249;28;20236;-66
2022/02/11 11:55:49;;;;;;;0.10;0.10;;;;;;;;;;5027000;28;20239;-68
2022/02/11 11:58:30;;;;;;;0.10;0.10;;;;;;;;;;5044574;28;20387;-67
2022/02/11 12:01:01;;;;;;;0.10;0.10;;;;;;;;;;5028078;28;20667;-67
2022/02/11 12:03:28;;;;;;;0.10;0.10;;;;;;;;;;5041919;28;20207;-68
2022/02/11 12:05:56;;;;;;;0.10;0.10;;;;;;;;;;5027858;28;20491;-67
2022/02/11 12:08:28;;;;;;;0.10;0.10;;;;;;;;;;5042587;28;20205;-67
2022/02/11 12:10:56;;;;;;;0.10;0.10;;;;;;;;;;5027595;28;20286;-67
2022/02/11 12:13:22;;;;;;;0.10;0.10;;;;;;;;;;5042830;28;20285;-68
2022/02/11 12:15:49;;;;;;;0.10;0.10;;;;;;;;;;5026408;28;20246;-67
2022/02/11 12:18:16;;;;;;;0.10;0.10;;;;;;;;;;5044369;28;20524;-67
2022/02/11 12:20:44;;;;;;;0.10;0.10;;;;;;;;;;5023558;28;20315;-68
2022/02/11 12:28:41;;;;;;;0.10;0.10;;;;;;;;;;5038145;28;20242;-67
2022/02/11 12:31:08;;;;;;;0.10;0.10;;;;;;;;;;5030569;28;20309;-66
2022/02/11 12:33:37;;;;;;;0.10;0.10;;;;;;;;;;5039033;28;20216;-68
2022/02/11 12:36:10;;;;;;;0.10;0.10;;;;;;;;;;5030055;28;20343;-66
2022/02/11 12:38:37;;;;;;;0.10;0.10;;;;;;;;;;5038147;28;20238;-67
2022/02/11 12:41:05;;;;;;;0.10;0.10;;;;;;;;;;5029697;28;20247;-66
2022/02/11 12:43:31;;;;;;;0.10;0.10;;;;;;;;;;5039866;28;20280;-66
2022/02/11 12:45:58;;;;;;;0.10;0.10;;;;;;;;;;5027423;28;20249;-67
2022/02/11 12:48:29;;;;;;;0.10;0.10;;;;;;;;;;5042223;28;20261;-66
2022/02/11 12:50:56;;;;;;;0.20;0.20;;;;;;;;;;5027791;28;20261;-69
2022/02/11 12:53:25;;;;;;;0.10;0.10;;;;;;;;;;5041810;28;20206;-66
2022/02/11 12:55:52;;;;;;;0.10;0.10;;;;;;;;;;5026141;28;20248;-66
2022/02/11 12:58:20;;;;;;;0.10;0.10;;;;;;;;;;5042738;28;20206;-69
2022/02/11 13:00:48;;;;;;;0.10;0.10;;;;;;;;;;5025020;28;20591;-65
2022/02/11 13:03:15;;;;;;;0.10;0.10;;;;;;;;;;5043652;28;20236;-65
2022/02/11 13:05:44;;;;;;;0.10;0.10;;;;;;;;;;5023682;28;20249;-66
2022/02/11 13:08:11;;;;;;;0.10;0.10;;;;;;;;;;5045087;28;20307;-66
2022/02/11 13:10:38;;;;;;;0.10;0.10;;;;;;;;;;5022249;28;20248;-67
2022/02/11 13:13:06;;;;;;;0.10;0.10;;;;;;;;;;5046600;28;20241;-66
2022/02/11 13:15:34;;;;;;;0.10;0.10;;;;;;;;;;5020233;28;20243;-65
2022/02/11 13:18:07;;;;;;;0.10;0.10;;;;;;;;;;5047531;28;20194;-66
2022/02/11 13:20:36;;;;;;;0.10;0.10;;;;;;;;;;5021560;28;20235;-66
2022/02/11 13:23:02;;;;;;;0.10;0.10;;;;;;;;;;5047172;28;20349;-65
2022/02/11 13:25:30;;;;;;;0.10;0.10;;;;;;;;;;5020046;28;20517;-66
2022/02/11 13:27:57;;;;;;;0.10;0.10;;;;;;;;;;5048445;28;20200;-66
2022/02/11 13:30:24;;;;;;;0.10;0.10;;;;;;;;;;5018485;28;20528;-66
2022/02/11 13:32:53;;;;;;;0.10;0.10;;;;;;;;;;5049878;28;20225;-66
2022/02/11 13:35:19;;;;;;;0.10;0.10;;;;;;;;;;5017361;28;20214;-67
2022/02/11 13:37:46;;;;;;;0.10;0.10;;;;;;;;;;5051201;28;20261;-66
2022/02/11 13:40:14;;;;;;;0.10;0.10;;;;;;;;;;5015657;28;20268;-65
2022/02/11 13:42:41;;;;;;;0.10;0.10;;;;;;;;;;5052252;28;20232;-67
2022/02/11 13:45:12;;;;;;;0.10;0.10;;;;;;;;;;5014210;28;20229;-67
2022/02/11 13:47:39;;;;;;;0.10;0.10;;;;;;;;;;5052571;28;20228;-67
2022/02/11 13:50:07;;;;;;;0.10;0.10;;;;;;;;;;5018014;28;20215;-67
2022/02/11 13:53:03;;;;;;;0.10;0.10;;;;;;;;;;5054366;28;20536;-66
2022/02/11 13:55:30;;;;;;;0.10;0.10;;;;;;;;;;5019742;28;20463;-66
2022/02/11 13:57:56;;;;;;;0.10;0.10;;;;;;;;;;5047863;28;20207;-66
2022/02/11 14:00:33;;;;;;;0.10;0.10;;;;;;;;;;5018035;28;20260;-66
2022/02/11 14:02:59;;;;;;;0.10;0.10;;;;;;;;;;5046960;28;20239;-66
2022/02/11 14:05:29;;;;;;;0.10;0.10;;;;;;;;;;5018930;28;20448;-67
2022/02/11 14:07:56;;;;;;;0.10;0.10;;;;;;;;;;5048056;28;20213;-67
2022/02/11 14:10:23;;;;;;;0.10;0.10;;;;;;;;;;5017604;28;20224;-66
2022/02/11 14:12:50;;;;;;;0.10;0.10;;;;;;;;;;5049508;28;20192;-66
2022/02/11 14:15:17;;;;;;;0.10;0.10;;;;;;;;;;5015964;28;20202;-66
2022/02/11 14:17:43;;;;;;;0.10;0.10;;;;;;;;;;5051294;28;20238;-67
2022/02/11 14:20:10;;;;;;;0.10;0.10;;;;;;;;;;5014354;28;20218;-67
2022/02/11 14:22:38;;;;;;;0.10;0.10;;;;;;;;;;5052794;28;20481;-67
2022/02/11 14:25:05;;;;;;;0.10;0.10;;;;;;;;;;5019331;28;20234;-66
2022/02/11 14:27:35;;;;;;;0.10;0.10;;;;;;;;;;5056609;28;20273;-66
2022/02/11 14:30:03;;;;;;;0.10;0.10;;;;;;;;;;5026817;28;20251;-67
2022/02/11 14:32:29;;;;;;;0.10;0.10;;;;;;;;;;5048642;28;20332;-66
2022/02/11 14:34:56;;;;;;;0.10;0.10;;;;;;;;;;5026622;28;20203;-68
2022/02/11 14:37:22;;;;;;;0.10;0.10;;;;;;;;;;5048635;28;20483;-66
2022/02/11 14:39:50;;;;;;;0.10;0.10;;;;;;;;;;5026640;28;20214;-65
2022/02/11 14:42:16;;;;;;;0.10;0.10;;;;;;;;;;5048349;28;20248;-66
2022/02/11 14:44:43;;;;;;;0.10;0.10;;;;;;;;;;5026478;28;20226;-66
2022/02/11 14:47:09;;;;;;;0.10;0.10;;;;;;;;;;5048490;28;20241;-66
2022/02/11 14:49:37;;;;;;;0.10;0.10;;;;;;;;;;5026291;28;20246;-67
2022/02/11 14:52:04;;;;;;;0.10;0.10;;;;;;;;;;5047786;28;20305;-66
2022/02/11 14:54:32;;;;;;;0.10;0.10;;;;;;;;;;5026569;28;20297;-66
2022/02/11 14:57:00;;;;;;;0.10;0.10;;;;;;;;;;5046364;28;20576;-66
2022/02/11 14:59:26;;;;;;;0.10;0.10;;;;;;;;;;5027933;28;20237;-67
2022/02/11 15:01:53;;;;;;;0.10;0.10;;;;;;;;;;5044711;28;20249;-67
2022/02/11 15:04:20;;;;;;;0.10;0.10;;;;;;;;;;5028813;28;20205;-66
2022/02/11 15:06:51;;;;;;;0.10;0.10;;;;;;;;;;5043027;28;20243;-66
2022/02/11 15:09:18;;;;;;;0.10;0.10;;;;;;;;;;5029504;28;20236;-66
2022/02/11 15:11:44;;;;;;;0.10;0.10;;;;;;;;;;5042469;28;20240;-66
2022/02/11 15:14:12;;;;;;;0.10;0.10;;;;;;;;;;5031501;28;20576;-66
2022/02/11 15:16:39;;;;;;;0.10;0.10;;;;;;;;;;5040593;28;20240;-68
2022/02/11 15:19:06;;;;;;;0.10;0.10;;;;;;;;;;5032858;28;20232;-68
2022/02/11 15:21:33;;;;;;;0.10;0.10;;;;;;;;;;5039053;28;20243;-67
2022/02/11 15:23:59;;;;;;;0.10;0.10;;;;;;;;;;5034379;28;20206;-66
2022/02/11 15:26:26;;;;;;;0.10;0.10;;;;;;;;;;5037444;28;20487;-66
2022/02/11 15:28:53;;;;;;;0.10;0.10;;;;;;;;;;5036136;28;20210;-62
2022/02/11 15:31:21;;;;;;;0.10;0.10;;;;;;;;;;5035713;28;20251;-64
2022/02/11 15:33:47;;;;;;;1.50;1.50;;;;;;;;;;5037506;28;20198;-63
2022/02/11 15:36:14;;;;;;;0.10;0.10;;;;;;;;;;5034173;28;20590;-62
2022/02/11 15:38:41;;;;;;;0.10;0.10;;;;;;;;;;5038191;28;20251;-63
2022/02/11 15:41:08;;;;;;;0.10;0.10;;;;;;;;;;5032579;28;20246;-63
2022/02/11 15:43:35;;;;;;;0.10;0.10;;;;;;;;;;5040597;28;20205;-63
2022/02/11 15:46:02;;;;;;;0.10;0.10;;;;;;;;;;5030850;28;20286;-62
2022/02/11 15:48:33;;;;;;;0.10;0.10;;;;;;;;;;5042297;28;20217;-63
2022/02/11 15:51:01;;;;;;;0.10;0.10;;;;;;;;;;5030349;28;20311;-63
2022/02/11 15:53:28;;;;;;;0.10;0.10;;;;;;;;;;5042260;28;20232;-63
2022/02/11 15:55:54;;;;;;;0.10;0.10;;;;;;;;;;5028408;28;20239;-67
2022/02/11 15:58:21;;;;;;;0.10;0.10;;;;;;;;;;5043910;28;20268;-66
2022/02/11 16:00:47;;;;;;;0.10;0.10;;;;;;;;;;5026526;28;20310;-66
2022/02/11 16:03:13;;;;;;;0.10;0.10;;;;;;;;;;5045946;28;20215;-66
2022/02/11 16:05:41;;;;;;;0.10;0.10;;;;;;;;;;5024511;28;20244;-66
2022/02/11 16:08:08;;;;;;;0.10;0.10;;;;;;;;;;5047564;28;20212;-67
2022/02/11 16:10:34;;;;;;;0.10;0.10;;;;;;;;;;5020996;28;20249;-66
2022/02/11 16:13:01;;;;;;;0.10;0.10;;;;;;;;;;5050231;28;20205;-65
2022/02/11 16:15:27;;;;;;;0.10;0.10;;;;;;;;;;5020485;28;20248;-66
2022/02/11 16:18:03;;;;;;;0.10;0.10;;;;;;;;;;5051583;28;20312;-65
2022/02/11 16:20:31;;;;;;;0.10;0.10;;;;;;;;;;5021229;28;20570;-65
2022/02/11 16:22:58;;;;;;;0.10;0.10;;;;;;;;;;5049971;28;20198;-65
2022/02/11 16:25:25;;;;;;;0.13;0.13;;;;;;;;;;5020368;28;20248;-66
2022/02/11 16:27:53;;;;;;;0.10;0.10;;;;;;;;;;5051418;28;20209;-65
2022/02/11 16:30:20;;;;;;;0.10;0.10;;;;;;;;;;5018506;28;20208;-66
2022/02/11 16:32:46;;;;;;;0.10;0.10;;;;;;;;;;5052565;28;20365;-67
2022/02/11 16:35:13;;;;;;;0.10;0.10;;;;;;;;;;5016575;28;20205;-67
2022/02/11 16:37:40;;;;;;;0.20;0.20;;;;;;;;;;5054459;28;20204;-67
2022/02/11 16:40:08;;;;;;;0.17;0.17;;;;;;;;;;5022099;28;20459;-70
2022/02/11 16:42:36;;;;;;;0.10;0.10;;;;;;;;;;5055820;28;20548;-67
2022/02/11 16:45:03;;;;;;;0.10;0.10;;;;;;;;;;5024176;28;20524;-66
2022/02/11 16:47:29;;;;;;;0.10;0.10;;;;;;;;;;5046304;28;20256;-66
2022/02/11 16:49:55;;;;;;;2.83;2.73;;;;;;;;;;5023305;28;20220;-68
2022/02/11 16:52:22;;;;;;;0.10;0.10;;;;;;;;;;5046185;28;20341;-66
2022/02/11 16:54:48;;;;;;;0.10;0.10;;;;;;;;;;5024141;28;20212;-66
2022/02/11 16:57:16;;;;;;;0.20;0.20;;;;;;;;;;5046090;28;20290;-66
2022/02/11 16:59:42;;;;;;;0.10;0.10;;;;;;;;;;5024083;28;20256;-66
2022/02/11 17:02:08;;;;;;;0.10;0.10;;;;;;;;;;5045852;28;20247;-66
2022/02/11 17:04:35;;;;;;;1.03;1.03;;;;;;;;;;5024084;28;20251;-66
2022/02/11 17:07:02;;;;;;;0.10;0.10;;;;;;;;;;5044418;28;20528;-66
2022/02/11 17:09:28;;;;;;;0.10;0.10;;;;;;;;;;5024449;28;20283;-65
2022/02/11 17:11:54;;;;;;;0.10;0.10;;;;;;;;;;5042805;28;20243;-66
2022/02/11 17:14:22;;;;;;;0.10;0.10;;;;;;;;;;5026492;28;20439;-66
2022/02/11 17:16:48;;;;;;;0.10;0.10;;;;;;;;;;5041287;28;20248;-66
2022/02/11 17:19:15;;;;;;;0.10;0.10;;;;;;;;;;5027632;28;20217;-65
2022/02/11 17:21:41;;;;;;;0.10;0.10;;;;;;;;;;5038928;28;20528;-66
2022/02/11 17:24:08;;;;;;;0.13;0.13;;;;;;;;;;5029576;28;20212;-67
2022/02/11 17:26:34;;;;;;;0.10;0.10;;;;;;;;;;5036791;28;20247;-69
2022/02/11 17:29:01;;;;;;;0.10;0.10;;;;;;;;;;5031513;28;20215;-67
2022/02/11 17:31:29;;;;;;;0.10;0.10;;;;;;;;;;5035080;28;20243;-70
2022/02/11 17:33:55;;;;;;;0.10;0.10;;;;;;;;;;5033405;28;20228;-68
2022/02/11 17:36:21;;;;;;;0.10;0.10;;;;;;;;;;5033321;28;20585;-67
2022/02/11 17:38:47;;;;;;;0.10;0.10;;;;;;;;;;5035013;28;20215;-67
2022/02/11 17:41:14;;;;;;;0.20;0.20;;;;;;;;;;5031567;28;20261;-68
2022/02/11 17:43:40;;;;;;;0.10;0.10;;;;;;;;;;5036915;28;20247;-68
2022/02/11 17:46:07;;;;;;;0.20;0.20;;;;;;;;;;5029490;28;20239;-68
2022/02/11 17:48:35;;;;;;;1.40;1.40;;;;;;;;;;5038291;28;20516;-69
2022/02/11 17:51:02;;;;;;;0.17;0.17;;;;;;;;;;5027961;28;20249;-68
2022/02/11 17:53:28;;;;;;;0.20;0.20;;;;;;;;;;5040113;28;20538;-69